Time;durP1;ratioP1;P1;durP2;ratioP2;P2;SDS_P1;SDS_P2;PMS_P1;PMS_P2;Temp;Humidity;BMP_temperature;BMP_pressure;BME280_temperature;BME280_humidity;BME280_pressure;Samples;Min_cycle;Max_cycle;Signal;HPM_P1;HPM_P2
2023/03/28 00:03:01;;;;;;;;;;;;;;;1.14;77.71;99997.69;5608948;31;34381;-65
2023/03/28 00:06:12;;;;;;;;;;;;;;;1.06;79.86;100007.88;5608626;31;34402;-65
2023/03/28 00:09:21;;;;;;;;;;;;;;;0.98;80.99;100006.78;5608103;31;34216;-64
2023/03/28 00:12:33;;;;;;;;;;;;;;;0.93;81.18;100012.34;5608752;31;34167;-65
2023/03/28 00:15:42;;;;;;;;;;;;;;;0.81;82.44;100021.13;5595920;31;34028;-65
2023/03/28 00:18:53;;;;;;;;;;;;;;;0.88;82.97;100027.53;5609391;31;34303;-64
2023/03/28 00:22:02;;;;;;;;;;;;;;;0.82;82.70;100028.03;5608710;31;34030;-64
2023/03/28 00:25:12;;;;;;;;;;;;;;;0.78;83.74;100034.38;5608630;31;35137;-65
2023/03/28 00:28:25;;;;;;;;;;;;;;;0.73;84.72;100037.34;5608344;31;34139;-65
2023/03/28 00:31:37;;;;;;;;;;;;;;;0.71;85.79;100038.41;5608547;31;34287;-64
2023/03/28 00:34:45;;;;;;;;;;;;;;;0.74;86.17;100052.06;5608189;31;33599;-64
2023/03/28 00:37:59;;;;;;;;;;;;;;;0.67;87.44;100068.31;5596409;31;33164;-65
2023/03/28 00:41:10;;;;;;;;;;;;;;;0.66;88.21;100064.88;5608987;31;34322;-65
2023/03/28 00:44:40;;;;;;;;;;;;;;;0.60;89.86;100067.91;5609163;31;34183;-64
2023/03/28 00:47:51;;;;;;;;;;;;;;;0.55;89.58;100070.03;5608948;31;34862;-65
2023/03/28 00:51:02;;;;;;;;;;;;;;;0.58;89.54;100075.00;5608901;31;34918;-65
2023/03/28 00:54:14;;;;;;;;;;;;;;;0.54;91.35;100085.78;5608579;31;34296;-64
2023/03/28 00:57:25;;;;;;;;;;;;;;;0.52;91.14;100082.47;5608305;31;34293;-65
2023/03/28 01:00:40;;;;;;;;;;;;;;;0.49;91.99;100099.16;5608159;31;34680;-64
2023/03/28 01:04:01;;;;;;;;;;;;;;;0.42;92.52;100100.56;5608918;31;32797;-65
2023/03/28 01:07:10;;;;;;;;;;;;;;;0.36;93.80;100101.84;5608717;31;33876;-65
2023/03/28 01:10:20;;;;;;;;;;;;;;;0.44;95.47;100111.72;5608392;31;34560;-64
2023/03/28 01:13:33;;;;;;;;;;;;;;;0.39;94.23;100122.47;5607886;31;34856;-64
2023/03/28 01:16:46;;;;;;;;;;;;;;;0.34;94.16;100124.59;5608447;31;34186;-64
2023/03/28 01:20:19;;;;;;;;;;;;;;;0.37;95.64;100118.34;5594945;31;32875;-64
2023/03/28 01:23:45;;;;;;;;;;;;;;;0.32;94.92;100131.72;5608329;31;33596;-65
2023/03/28 01:27:13;;;;;;;;;;;;;;;0.35;95.61;100128.03;5594840;31;33227;-64
2023/03/28 01:30:23;;;;;;;;;;;;;;;0.29;97.53;100125.88;5594985;31;32778;-64
2023/03/28 01:33:45;;;;;;;;;;;;;;;0.29;97.55;100124.06;5594436;31;34547;-64
2023/03/28 01:37:00;;;;;;;;;;;;;;;0.25;98.71;100125.25;5594855;31;34982;-65
2023/03/28 01:40:18;;;;;;;;;;;;;;;0.23;98.43;100134.12;5608027;31;35054;-65
2023/03/28 01:43:35;;;;;;;;;;;;;;;0.19;100.00;100145.72;5607443;31;33980;-64
2023/03/28 01:46:52;;;;;;;;;;;;;;;0.29;99.53;100146.75;5607320;31;33911;-64
2023/03/28 01:50:22;;;;;;;;;;;;;;;0.21;100.00;100154.25;5595716;31;33967;-65
2023/03/28 01:53:36;;;;;;;;;;;;;;;0.25;100.00;100155.72;5607284;31;34058;-65
2023/03/28 01:56:45;;;;;;;;;;;;;;;0.17;100.00;100151.03;5608314;31;34701;-65
2023/03/28 02:00:10;;;;;;;;;;;;;;;0.28;100.00;100163.34;5607130;31;33799;-64
2023/03/28 02:03:24;;;;;;;;;;;;;;;0.22;100.00;100158.53;5607602;31;34205;-65
2023/03/28 02:06:37;;;;;;;;;;;;;;;0.30;100.00;100156.22;5608317;31;34181;-64
2023/03/28 02:09:53;;;;;;;;;;;;;;;0.23;100.00;100163.66;5609532;31;33315;-64
2023/03/28 02:13:10;;;;;;;;;;;;;;;0.23;100.00;100171.50;5610613;31;34306;-65
2023/03/28 02:16:26;;;;;;;;;;;;;;;0.18;100.00;100170.16;5609821;31;35077;-64
2023/03/28 02:19:38;;;;;;;;;;;;;;;0.16;100.00;100179.84;5609632;31;32761;-64
2023/03/28 02:22:50;;;;;;;;;;;;;;;0.22;100.00;100184.62;5610479;31;34906;-64
2023/03/28 02:25:58;;;;;;;;;;;;;;;0.19;100.00;100166.59;5609619;31;34470;-64
2023/03/28 02:29:08;;;;;;;;;;;;;;;0.21;100.00;100175.97;5609404;31;33563;-64
2023/03/28 02:32:22;;;;;;;;;;;;;;;0.27;100.00;100182.53;5609526;31;33395;-64
2023/03/28 02:35:44;;;;;;;;;;;;;;;0.22;100.00;100172.44;5610412;31;34356;-64
2023/03/28 02:39:05;;;;;;;;;;;;;;;0.23;100.00;100181.09;5596826;31;34563;-64
2023/03/28 02:42:17;;;;;;;;;;;;;;;0.25;100.00;100190.47;5610320;31;34287;-64
2023/03/28 02:45:35;;;;;;;;;;;;;;;0.28;100.00;100194.66;5610195;31;34508;-64
2023/03/28 02:48:43;;;;;;;;;;;;;;;0.32;100.00;100190.88;5609998;31;35021;-64
2023/03/28 02:52:03;;;;;;;;;;;;;;;0.30;100.00;100192.75;5610002;31;35032;-64
2023/03/28 02:55:19;;;;;;;;;;;;;;;0.27;100.00;100198.19;5596591;31;32830;-64
2023/03/28 02:58:36;;;;;;;;;;;;;;;0.26;100.00;100202.56;5609220;31;35383;-65
2023/03/28 03:01:45;;;;;;;;;;;;;;;0.25;100.00;100205.28;5610192;31;33848;-64
2023/03/28 03:04:56;;;;;;;;;;;;;;;0.23;100.00;100212.41;5596670;31;32795;-64
2023/03/28 03:08:05;;;;;;;;;;;;;;;0.24;100.00;100214.88;5609966;31;34421;-63
2023/03/28 03:11:18;;;;;;;;;;;;;;;0.25;100.00;100205.28;5609177;31;35552;-64
2023/03/28 03:14:28;;;;;;;;;;;;;;;0.22;100.00;100215.94;5609186;31;35107;-65
2023/03/28 03:17:46;;;;;;;;;;;;;;;0.21;100.00;100222.94;5609196;31;34982;-65
2023/03/28 03:21:01;;;;;;;;;;;;;;;0.17;100.00;100224.09;5609848;31;33467;-63
2023/03/28 03:24:13;;;;;;;;;;;;;;;0.14;100.00;100232.12;5609015;31;34290;-63
2023/03/28 03:27:24;;;;;;;;;;;;;;;0.10;100.00;100243.69;5608947;31;34358;-63
2023/03/28 03:30:34;;;;;;;;;;;;;;;0.09;100.00;100259.47;5608864;31;32878;-63
2023/03/28 03:33:45;;;;;;;;;;;;;;;0.08;100.00;100263.84;5596840;31;34325;-64
2023/03/28 03:36:55;;;;;;;;;;;;;;;0.04;100.00;100262.38;5609027;31;34171;-64
2023/03/28 03:40:06;;;;;;;;;;;;;;;-0.01;100.00;100260.09;5609712;31;34203;-63
2023/03/28 03:43:21;;;;;;;;;;;;;;;0.00;100.00;100274.78;5608567;31;34294;-63
2023/03/28 03:46:33;;;;;;;;;;;;;;;-0.01;100.00;100274.91;5608872;31;34946;-62
2023/03/28 03:49:43;;;;;;;;;;;;;;;-0.01;100.00;100278.34;5608872;31;35215;-64
2023/03/28 03:52:51;;;;;;;;;;;;;;;-0.03;100.00;100285.44;5608564;31;35058;-64
2023/03/28 03:56:05;;;;;;;;;;;;;;;-0.05;100.00;100286.47;5609614;31;35021;-63
2023/03/28 03:59:18;;;;;;;;;;;;;;;-0.07;100.00;100294.41;5596776;31;33307;-64
2023/03/28 04:02:26;;;;;;;;;;;;;;;-0.11;100.00;100298.16;5609029;31;34925;-65
2023/03/28 04:05:34;;;;;;;;;;;;;;;-0.11;100.00;100300.75;5608802;31;34295;-64
2023/03/28 04:08:42;;;;;;;;;;;;;;;-0.09;100.00;100308.44;5564774;31;1189109;-64
2023/03/28 04:11:55;;;;;;;;;;;;;;;-0.12;100.00;100304.28;5596071;31;34814;-64
2023/03/28 04:15:04;;;;;;;;;;;;;;;-0.14;100.00;100297.50;5609455;31;34275;-64
2023/03/28 04:18:16;;;;;;;;;;;;;;;-0.13;100.00;100307.84;5608645;31;34901;-63
2023/03/28 04:21:30;;;;;;;;;;;;;;;-0.09;100.00;100314.50;5609585;31;34345;-64
2023/03/28 04:24:40;;;;;;;;;;;;;;;0.00;100.00;100313.88;5608576;31;35004;-63
2023/03/28 04:27:49;;;;;;;;;;;;;;;0.01;100.00;100312.13;5609268;31;34858;-63
2023/03/28 04:30:59;;;;;;;;;;;;;;;-0.02;100.00;100330.59;5608120;31;33733;-63
2023/03/28 04:34:09;;;;;;;;;;;;;;;-0.06;100.00;100324.75;5596318;31;34901;-65
2023/03/28 04:37:20;;;;;;;;;;;;;;;-0.10;100.00;100314.63;5595704;31;34558;-64
2023/03/28 04:40:28;;;;;;;;;;;;;;;-0.11;100.00;100329.44;5608416;31;34869;-65
2023/03/28 04:43:35;;;;;;;;;;;;;;;-0.09;100.00;100331.91;5608427;31;34904;-64
2023/03/28 04:46:45;;;;;;;;;;;;;;;-0.07;100.00;100325.69;5608298;31;34908;-64
2023/03/28 04:49:52;;;;;;;;;;;;;;;-0.02;100.00;100351.47;5607993;31;34980;-64
2023/03/28 04:52:59;;;;;;;;;;;;;;;-0.03;100.00;100349.78;5595015;31;33375;-65
2023/03/28 04:56:12;;;;;;;;;;;;;;;0.02;100.00;100352.06;5607325;31;34462;-65
2023/03/28 04:59:21;;;;;;;;;;;;;;;0.02;100.00;100355.53;5608142;31;33852;-64
2023/03/28 05:02:30;;;;;;;;;;;;;;;0.08;100.00;100360.34;5608056;31;34130;-64
2023/03/28 05:05:37;;;;;;;;;;;;;;;0.15;100.00;100363.34;5608004;31;33049;-64
2023/03/28 05:08:45;;;;;;;;;;;;;;;0.15;100.00;100348.53;5608826;31;34690;-64
2023/03/28 05:11:52;;;;;;;;;;;;;;;0.30;100.00;100355.34;5608063;31;34352;-63
2023/03/28 05:14:58;;;;;;;;;;;;;;;0.35;100.00;100355.87;5608511;31;34323;-64
2023/03/28 05:18:07;;;;;;;;;;;;;;;0.43;100.00;100364.03;5608416;31;33754;-63
2023/03/28 05:21:17;;;;;;;;;;;;;;;0.43;100.00;100364.03;5607630;31;33266;-64
2023/03/28 05:24:26;;;;;;;;;;;;;;;0.48;100.00;100376.78;5607691;31;33420;-63
2023/03/28 05:27:31;;;;;;;;;;;;;;;0.53;100.00;100385.13;5608372;31;33724;-64
2023/03/28 05:30:39;;;;;;;;;;;;;;;0.54;100.00;100384.16;5594202;31;34962;-64
2023/03/28 05:33:45;;;;;;;;;;;;;;;0.62;100.00;100391.50;5607038;31;34998;-64
2023/03/28 05:36:56;;;;;;;;;;;;;;;0.67;100.00;100397.25;5606861;31;32978;-63
2023/03/28 05:40:06;;;;;;;;;;;;;;;0.62;100.00;100412.38;5608002;31;35034;-63
2023/03/28 05:43:13;;;;;;;;;;;;;;;0.68;100.00;100404.13;5609635;31;33009;-64
2023/03/28 05:46:16;;;;;;;;;;;;;;;0.72;100.00;100411.66;5610478;31;33786;-63
2023/03/28 05:49:21;;;;;;;;;;;;;;;0.75;100.00;100413.22;5609237;31;34178;-64
2023/03/28 05:52:26;;;;;;;;;;;;;;;0.78;100.00;100410.37;5610349;31;34891;-65
2023/03/28 05:55:29;;;;;;;;;;;;;;;0.80;100.00;100416.34;5609634;31;34256;-65
2023/03/28 05:58:36;;;;;;;;;;;;;;;0.85;100.00;100428.16;5609542;31;34858;-63
2023/03/28 06:01:41;;;;;;;;;;;;;;;0.88;100.00;100425.31;5609579;31;35558;-64
2023/03/28 06:04:47;;;;;;;;;;;;;;;0.90;100.00;100433.06;5609640;31;35194;-64
2023/03/28 06:07:52;;;;;;;;;;;;;;;0.99;100.00;100437.66;5609714;31;34300;-64
2023/03/28 06:11:03;;;;;;;;;;;;;;;1.03;100.00;100444.31;5596579;31;33591;-64
2023/03/28 06:14:12;;;;;;;;;;;;;;;1.09;100.00;100458.75;5596673;31;32737;-64
2023/03/28 06:17:17;;;;;;;;;;;;;;;1.07;100.00;100461.47;5609374;31;33716;-64
2023/03/28 06:20:24;;;;;;;;;;;;;;;1.23;100.00;100479.53;5597300;31;33366;-64
2023/03/28 06:23:29;;;;;;;;;;;;;;;1.27;100.00;100471.37;5609255;31;34701;-64
2023/03/28 06:26:34;;;;;;;;;;;;;;;1.43;100.00;100478.16;5610227;31;34856;-64
2023/03/28 06:29:40;;;;;;;;;;;;;;;1.58;100.00;100477.91;5609280;31;34950;-64
2023/03/28 06:32:44;;;;;;;;;;;;;;;1.90;100.00;100478.22;5609220;31;33361;-63
2023/03/28 06:35:50;;;;;;;;;;;;;;;2.10;100.00;100495.09;5609789;31;34180;-63
2023/03/28 06:38:57;;;;;;;;;;;;;;;2.21;100.00;100492.56;5608843;31;34446;-62
2023/03/28 06:42:03;;;;;;;;;;;;;;;2.29;100.00;100499.84;5609235;31;34847;-63
2023/03/28 06:45:10;;;;;;;;;;;;;;;2.68;100.00;100515.22;5610004;31;34115;-64
2023/03/28 06:48:16;;;;;;;;;;;;;;;3.04;100.00;100512.47;5608958;31;34297;-63
2023/03/28 06:51:22;;;;;;;;;;;;;;;3.45;96.28;100517.16;5609488;31;35701;-64
2023/03/28 06:54:28;;;;;;;;;;;;;;;3.23;96.17;100529.41;5609336;31;34755;-65
2023/03/28 06:57:34;;;;;;;;;;;;;;;3.52;93.85;100521.94;5609132;31;34084;-64
2023/03/28 07:00:41;;;;;;;;;;;;;;;4.01;90.52;100524.16;5596472;31;33488;-64
2023/03/28 07:03:46;;;;;;;;;;;;;;;3.75;89.71;100520.97;5596501;31;33084;-65
2023/03/28 07:06:54;;;;;;;;;;;;;;;3.93;87.94;100525.59;5609624;31;33944;-63
2023/03/28 07:09:59;;;;;;;;;;;;;;;4.22;86.80;100522.41;5608980;31;34311;-64
2023/03/28 07:13:07;;;;;;;;;;;;;;;4.73;83.43;100522.59;5609028;31;34249;-63
2023/03/28 07:16:15;;;;;;;;;;;;;;;4.49;82.16;100525.44;5609847;31;34488;-63
2023/03/28 07:19:21;;;;;;;;;;;;;;;4.50;81.79;100523.66;5608975;31;34423;-63
2023/03/28 07:22:27;;;;;;;;;;;;;;;4.98;77.37;100524.84;5595686;31;34263;-64
2023/03/28 07:25:33;;;;;;;;;;;;;;;4.82;75.52;100519.19;5608990;31;34282;-64
2023/03/28 07:28:39;;;;;;;;;;;;;;;4.69;75.83;100519.38;5595941;31;33517;-63
2023/03/28 07:31:44;;;;;;;;;;;;;;;5.28;73.95;100523.22;5595910;31;32970;-64
2023/03/28 07:34:51;;;;;;;;;;;;;;;5.06;74.65;100529.44;5608202;31;34029;-64
2023/03/28 07:37:58;;;;;;;;;;;;;;;5.88;70.69;100527.66;5608943;31;34278;-65
2023/03/28 07:41:04;;;;;;;;;;;;;;;6.65;67.78;100527.75;5610107;31;34521;-62
2023/03/28 07:44:10;;;;;;;;;;;;;;;5.58;69.30;100531.94;5596110;31;34143;-64
2023/03/28 07:47:17;;;;;;;;;;;;;;;5.77;68.51;100533.81;5608815;31;34119;-64
2023/03/28 07:50:22;;;;;;;;;;;;;;;5.19;71.81;100530.91;5608805;31;34157;-65
2023/03/28 07:53:28;;;;;;;;;;;;;;;4.84;75.13;100542.72;5609611;31;34753;-64
2023/03/28 07:56:34;;;;;;;;;;;;;;;5.98;70.18;100555.69;5609577;31;33863;-64
2023/03/28 07:59:43;;;;;;;;;;;;;;;5.96;69.72;100547.06;5608468;31;33591;-64
2023/03/28 08:02:50;;;;;;;;;;;;;;;6.74;65.21;100546.22;5608414;31;34514;-64
2023/03/28 08:06:01;;;;;;;;;;;;;;;6.51;65.64;100542.19;5608337;31;34305;-64
2023/03/28 08:09:08;;;;;;;;;;;;;;;6.84;62.99;100541.78;5608617;31;33785;-64
2023/03/28 08:12:15;;;;;;;;;;;;;;;7.02;61.86;100536.59;5595628;31;32935;-65
2023/03/28 08:15:19;;;;;;;;;;;;;;;6.68;61.95;100532.78;5608762;31;34898;-66
2023/03/28 08:18:25;;;;;;;;;;;;;;;6.09;64.43;100554.75;5595901;31;33847;-65
2023/03/28 08:21:34;;;;;;;;;;;;;;;6.03;65.34;100531.56;5608590;31;35454;-65
2023/03/28 08:24:39;;;;;;;;;;;;;;;6.49;62.68;100542.31;5609438;31;33927;-64
2023/03/28 08:27:43;;;;;;;;;;;;;;;6.53;64.15;100550.81;5609224;31;34705;-65
2023/03/28 08:30:48;;;;;;;;;;;;;;;6.96;61.95;100545.94;5608450;31;33775;-65
2023/03/28 08:33:53;;;;;;;;;;;;;;;6.82;61.79;100545.53;5608872;31;35058;-67
2023/03/28 08:37:01;;;;;;;;;;;;;;;7.15;60.42;100547.72;5595755;31;35664;-67
2023/03/28 08:40:12;;;;;;;;;;;;;;;6.15;62.44;100538.37;5609086;31;34271;-67
2023/03/28 08:43:30;;;;;;;;;;;;;;;5.69;64.49;100534.50;5595401;31;33516;-66
2023/03/28 08:46:38;;;;;;;;;;;;;;;6.18;63.06;100556.56;5607968;31;34265;-66
2023/03/28 08:49:49;;;;;;;;;;;;;;;7.74;57.61;100550.03;5608815;31;34329;-66
2023/03/28 08:52:54;;;;;;;;;;;;;;;7.34;58.75;100550.31;5607394;31;34474;-65
2023/03/28 08:56:02;;;;;;;;;;;;;;;7.47;57.09;100552.63;5608251;31;34699;-65
2023/03/28 08:59:11;;;;;;;;;;;;;;;7.92;54.36;100530.78;5595362;31;34334;-66
2023/03/28 09:02:21;;;;;;;;;;;;;;;7.21;55.60;100528.66;5607948;31;34285;-66
2023/03/28 09:05:45;;;;;;;;;;;;;;;6.36;58.73;100519.84;5609033;31;34515;-66
2023/03/28 09:09:07;;;;;;;;;;;;;;;5.30;63.80;100501.06;5608744;31;33153;-66
2023/03/28 09:12:15;;;;;;;;;;;;;;;5.27;64.00;100498.72;5594278;31;34411;-65
2023/03/28 09:15:22;;;;;;;;;;;;;;;5.63;62.39;100506.06;5610531;31;34296;-65
2023/03/28 09:18:30;;;;;;;;;;;;;;;4.95;64.27;100525.09;5615115;31;35005;-65
2023/03/28 09:21:43;;;;;;;;;;;;;;;4.92;66.11;100520.09;5614355;31;34388;-65
2023/03/28 09:24:59;;;;;;;;;;;;;;;5.07;58.25;100513.56;5614261;31;34419;-66
2023/03/28 09:28:26;;;;;;;;;;;;;;;5.01;58.33;100521.13;5614335;31;34281;-65
2023/03/28 09:31:36;;;;;;;;;;;;;;;5.18;55.93;100502.94;5610124;31;34925;-65
2023/03/28 09:34:47;;;;;;;;;;;;;;;4.97;56.88;100524.97;5588285;31;33036;-67
2023/03/28 09:37:59;;;;;;;;;;;;;;;4.92;54.58;100524.53;5614675;31;35222;-64
2023/03/28 09:41:12;;;;;;;;;;;;;;;5.15;53.82;100520.78;5601142;31;33383;-64
2023/03/28 09:44:27;;;;;;;;;;;;;;;5.56;54.64;100536.53;5613886;31;34001;-65
2023/03/28 09:47:36;;;;;;;;;;;;;;;5.56;51.82;100519.91;5613893;31;34233;-64
2023/03/28 09:50:41;;;;;;;;;;;;;;;5.08;48.12;100517.03;5611393;31;34220;-65
2023/03/28 09:53:48;;;;;;;;;;;;;;;5.07;49.27;100545.13;5611481;31;34740;-67
2023/03/28 09:56:54;;;;;;;;;;;;;;;4.88;51.87;100539.72;5613751;31;33958;-67
2023/03/28 10:00:04;;;;;;;;;;;;;;;5.04;53.35;100534.00;5600809;31;34735;-65
2023/03/28 10:03:27;;;;;;;;;;;;;;;5.18;53.87;100534.50;5601338;31;34763;-64
2023/03/28 10:06:38;;;;;;;;;;;;;;;5.04;53.13;100537.47;5600611;31;34125;-64
2023/03/28 10:09:47;;;;;;;;;;;;;;;5.04;52.69;100558.50;5600314;31;34386;-65
2023/03/28 10:12:57;;;;;;;;;;;;;;;5.38;51.17;100542.50;5613059;31;34606;-66
2023/03/28 10:16:02;;;;;;;;;;;;;;;5.37;51.91;100538.22;5613996;31;34309;-65
2023/03/28 10:19:09;;;;;;;;;;;;;;;5.44;52.20;100524.41;5614108;31;34387;-63
2023/03/28 10:22:25;;;;;;;;;;;;;;;5.76;51.14;100540.03;5600379;31;33958;-66
2023/03/28 10:25:38;;;;;;;;;;;;;;;5.89;51.06;100516.16;5613927;31;34222;-65
2023/03/28 10:28:45;;;;;;;;;;;;;;;5.95;52.96;100520.91;5609814;31;34937;-65
2023/03/28 10:31:50;;;;;;;;;;;;;;;5.78;53.47;100527.59;5608872;31;33993;-65
2023/03/28 10:35:01;;;;;;;;;;;;;;;5.96;53.25;100522.53;5596383;31;33677;-64
2023/03/28 10:38:14;;;;;;;;;;;;;;;6.18;50.78;100526.75;5596252;31;33899;-64
2023/03/28 10:41:19;;;;;;;;;;;;;;;6.03;51.77;100515.78;5596243;31;33207;-65
2023/03/28 10:44:30;;;;;;;;;;;;;;;6.46;51.03;100529.44;5595175;31;34415;-68
2023/03/28 10:47:34;;;;;;;;;;;;;;;6.23;49.90;100524.56;5605970;31;34392;-65
2023/03/28 10:50:43;;;;;;;;;;;;;;;6.25;50.06;100512.06;5609846;31;33741;-64
2023/03/28 10:53:57;;;;;;;;;;;;;;;6.32;50.36;100547.44;5609330;31;32899;-66
2023/03/28 10:57:10;;;;;;;;;;;;;;;6.45;49.85;100545.37;5610057;31;34377;-65
2023/03/28 11:00:32;;;;;;;;;;;;;;;6.45;49.60;100554.09;5596284;31;34025;-64
2023/03/28 11:03:40;;;;;;;;;;;;;;;6.88;48.07;100543.16;5609249;31;33603;-65
2023/03/28 11:07:02;;;;;;;;;;;;;;;7.57;46.02;100536.75;5609305;31;33706;-65
2023/03/28 11:10:32;;;;;;;;;;;;;;;8.64;41.36;100544.78;5609682;31;34978;-66
2023/03/28 11:13:42;;;;;;;;;;;;;;;9.16;40.04;100529.84;5580894;31;34390;-64
2023/03/28 11:17:07;;;;;;;;;;;;;;;9.81;38.89;100529.38;5596356;31;33372;-66
2023/03/28 11:20:29;;;;;;;;;;;;;;;9.31;38.83;100524.81;5609052;31;33264;-64
2023/03/28 11:23:41;;;;;;;;;;;;;;;9.88;37.41;100531.22;5609024;31;32894;-65
2023/03/28 11:26:51;;;;;;;;;;;;;;;10.74;38.54;100547.72;5596261;31;33226;-66
2023/03/28 11:30:13;;;;;;;;;;;;;;;11.53;36.11;100531.03;5609096;31;34459;-66
2023/03/28 11:33:32;;;;;;;;;;;;;;;11.33;34.32;100553.66;5609152;31;34260;-65
2023/03/28 11:36:40;;;;;;;;;;;;;;;12.41;35.36;100529.03;5609146;31;34438;-65
2023/03/28 11:39:51;;;;;;;;;;;;;;;13.10;31.71;100537.81;5608302;31;34929;-66
2023/03/28 11:43:00;;;;;;;;;;;;;;;12.79;29.80;100558.38;5595876;31;33078;-66
2023/03/28 11:46:25;;;;;;;;;;;;;;;10.55;33.44;100545.37;5608687;31;34418;-65
2023/03/28 11:49:46;;;;;;;;;;;;;;;9.16;35.59;100545.72;5609632;31;34854;-65
2023/03/28 11:52:54;;;;;;;;;;;;;;;10.46;33.93;100554.28;5607979;31;34024;-65
2023/03/28 11:56:22;;;;;;;;;;;;;;;8.74;35.57;100552.66;5609108;31;33879;-65
2023/03/28 11:59:46;;;;;;;;;;;;;;;9.07;35.12;100537.88;5600351;31;33073;-65
2023/03/28 12:02:56;;;;;;;;;;;;;;;10.67;34.20;100559.97;5608220;31;34291;-65
2023/03/28 12:06:10;;;;;;;;;;;;;;;11.56;32.49;100551.97;5609124;31;33733;-66
2023/03/28 12:09:18;;;;;;;;;;;;;;;12.29;31.04;100542.91;5608085;31;34889;-66
2023/03/28 12:12:54;;;;;;;;;;;;;;;13.48;28.47;100526.16;5607838;31;33238;-66
2023/03/28 12:16:03;;;;;;;;;;;;;;;12.22;28.30;100544.59;5541363;31;34194;-65
2023/03/28 12:19:12;;;;;;;;;;;;;;;12.72;28.09;100547.62;5608136;31;34415;-67
2023/03/28 12:22:18;;;;;;;;;;;;;;;13.11;26.43;100525.34;5608141;31;34529;-66
2023/03/28 12:25:28;;;;;;;;;;;;;;;11.39;27.70;100552.16;5608079;31;34182;-65
2023/03/28 12:28:37;;;;;;;;;;;;;;;13.60;26.10;100542.53;5608008;31;34855;-66
2023/03/28 12:31:50;;;;;;;;;;;;;;;11.77;26.94;100551.41;5607897;31;34227;-65
2023/03/28 12:35:11;;;;;;;;;;;;;;;10.25;28.45;100557.41;5608087;31;35100;-67
2023/03/28 12:38:22;;;;;;;;;;;;;;;11.11;27.67;100576.44;5582073;31;33822;-64
2023/03/28 12:41:36;;;;;;;;;;;;;;;13.05;26.11;100548.19;5607839;31;34970;-66
2023/03/28 12:44:53;;;;;;;;;;;;;;;13.38;25.15;100543.41;5608421;31;34291;-66
2023/03/28 12:48:04;;;;;;;;;;;;;;;15.97;22.90;100564.41;5607954;31;34445;-66
2023/03/28 12:51:17;;;;;;;;;;;;;;;15.09;22.82;100565.00;5607563;31;34499;-66
2023/03/28 12:54:31;;;;;;;;;;;;;;;15.41;22.18;100576.16;5608057;31;33915;-66
2023/03/28 12:57:40;;;;;;;;;;;;;;;13.49;23.76;100556.28;5608249;31;34231;-66
2023/03/28 13:01:03;;;;;;;;;;;;;;;11.94;25.61;100568.16;5607627;31;34897;-65
2023/03/28 13:04:21;;;;;;;;;;;;;;;8.90;28.24;100571.31;5582990;31;32828;-67
2023/03/28 13:07:38;;;;;;;;;;;;;;;8.58;29.36;100573.66;5608617;31;34557;-66
2023/03/28 13:11:01;;;;;;;;;;;;;;;7.37;32.33;100581.69;5607761;31;34218;-67
2023/03/28 13:14:13;;;;;;;;;;;;;;;6.81;32.22;100602.72;5608195;31;34228;-66
2023/03/28 13:17:20;;;;;;;;;;;;;;;6.58;32.79;100587.28;5608625;31;34851;-65
2023/03/28 13:20:29;;;;;;;;;;;;;;;6.73;33.28;100597.28;5608384;31;34257;-64
2023/03/28 13:23:47;;;;;;;;;;;;;;;6.32;33.58;100613.31;5608080;31;34583;-65
2023/03/28 13:26:53;;;;;;;;;;;;;;;5.99;35.00;100603.94;5607485;31;34244;-66
2023/03/28 13:30:18;;;;;;;;;;;;;;;6.33;35.53;100601.81;5607376;31;34271;-66
2023/03/28 13:33:27;;;;;;;;;;;;;;;6.88;33.77;100608.25;5594310;31;33672;-64
2023/03/28 13:36:34;;;;;;;;;;;;;;;6.92;32.80;100614.94;5607298;31;34948;-65
2023/03/28 13:39:38;;;;;;;;;;;;;;;7.62;38.79;100629.56;5607030;31;34256;-65
2023/03/28 13:42:55;;;;;;;;;;;;;;;9.24;42.78;100647.37;5607772;31;33028;-64
2023/03/28 13:46:02;;;;;;;;;;;;;;;9.08;44.81;100677.16;5606793;31;33685;-64
2023/03/28 13:49:10;;;;;;;;;;;;;;;9.46;42.70;100668.88;5607711;31;34231;-64
2023/03/28 13:52:17;;;;;;;;;;;;;;;8.78;42.86;100677.50;5606715;31;34326;-64
2023/03/28 13:55:24;;;;;;;;;;;;;;;7.79;43.70;100658.69;5607539;31;35561;-67
2023/03/28 13:58:28;;;;;;;;;;;;;;;8.86;41.09;100665.19;5606266;31;32636;-67
2023/03/28 14:01:34;;;;;;;;;;;;;;;8.32;42.83;100676.66;5606719;31;33289;-67
2023/03/28 14:04:39;;;;;;;;;;;;;;;8.20;43.45;100675.97;5609973;31;34454;-67
2023/03/28 14:07:45;;;;;;;;;;;;;;;9.46;39.40;100673.34;5609256;31;34305;-67
2023/03/28 14:10:51;;;;;;;;;;;;;;;10.68;36.64;100678.38;5609861;31;33847;-68
2023/03/28 14:14:01;;;;;;;;;;;;;;;10.68;33.04;100685.50;5596373;31;34141;-68
2023/03/28 14:17:07;;;;;;;;;;;;;;;9.97;33.68;100685.81;5609540;31;34654;-67
2023/03/28 14:20:16;;;;;;;;;;;;;;;10.44;32.98;100684.44;5609634;31;34900;-68
2023/03/28 14:23:27;;;;;;;;;;;;;;;9.98;33.80;100683.00;5609396;31;34777;-67
2023/03/28 14:26:34;;;;;;;;;;;;;;;9.93;34.60;100687.94;5596442;31;33481;-68
2023/03/28 14:29:56;;;;;;;;;;;;;;;9.14;34.94;100709.16;5610186;31;34599;-67
2023/03/28 14:33:12;;;;;;;;;;;;;;;9.24;34.64;100679.97;5609402;31;34291;-66
2023/03/28 14:36:17;;;;;;;;;;;;;;;7.86;37.28;100678.28;5609118;31;34751;-67
2023/03/28 14:39:23;;;;;;;;;;;;;;;7.60;38.58;100679.88;5609870;31;34403;-67
2023/03/28 14:42:30;;;;;;;;;;;;;;;7.17;37.75;100690.87;5609747;31;35282;-68
2023/03/28 14:45:39;;;;;;;;;;;;;;;7.79;36.01;100679.81;5595650;31;33233;-67
2023/03/28 14:48:45;;;;;;;;;;;;;;;7.48;33.82;100706.56;5609027;31;34815;-68
2023/03/28 14:51:57;;;;;;;;;;;;;;;7.06;34.91;100685.75;5609224;31;34179;-68
2023/03/28 14:55:04;;;;;;;;;;;;;;;6.77;36.05;100690.12;5609297;31;33421;-66
2023/03/28 14:58:11;;;;;;;;;;;;;;;6.01;36.03;100699.41;5610087;31;35022;-67
2023/03/28 15:01:21;;;;;;;;;;;;;;;5.65;36.57;100703.34;5609962;31;34573;-67
2023/03/28 15:04:28;;;;;;;;;;;;;;;5.65;37.35;100704.19;5608701;31;34172;-66
2023/03/28 15:07:58;;;;;;;;;;;;;;;5.49;38.13;100684.50;5608335;31;35030;-66
2023/03/28 15:11:32;;;;;;;;;;;;;;;5.42;39.70;100699.97;5609186;31;34420;-66
2023/03/28 15:14:57;;;;;;;;;;;;;;;5.40;41.04;100722.97;5609446;31;35114;-66
2023/03/28 15:18:27;;;;;;;;;;;;;;;5.32;40.83;100706.97;5608728;31;34715;-66
2023/03/28 15:21:37;;;;;;;;;;;;;;;5.33;42.14;100713.03;5608932;31;35051;-66
2023/03/28 15:24:45;;;;;;;;;;;;;;;5.25;41.30;100729.47;5609809;31;34842;-66
2023/03/28 15:28:03;;;;;;;;;;;;;;;5.09;39.72;100711.47;5609139;31;34261;-67
2023/03/28 15:31:13;;;;;;;;;;;;;;;5.21;40.96;100726.25;5608821;31;35105;-66
2023/03/28 15:34:23;;;;;;;;;;;;;;;5.09;38.16;100739.56;5609550;31;34220;-66
2023/03/28 15:37:39;;;;;;;;;;;;;;;4.98;38.34;100735.19;5609698;31;34823;-66
2023/03/28 15:40:51;;;;;;;;;;;;;;;5.01;37.72;100744.59;5596174;31;33951;-67
2023/03/28 15:44:09;;;;;;;;;;;;;;;4.94;37.90;100744.25;5609510;31;34402;-66
2023/03/28 15:47:19;;;;;;;;;;;;;;;4.86;38.50;100743.19;5608938;31;33749;-68
2023/03/28 15:50:32;;;;;;;;;;;;;;;4.88;38.58;100764.97;5608490;31;34764;-66
2023/03/28 15:53:40;;;;;;;;;;;;;;;4.93;39.87;100776.78;5596070;31;33947;-65
2023/03/28 15:56:47;;;;;;;;;;;;;;;4.79;41.16;100775.22;5608691;31;34408;-64
2023/03/28 15:59:54;;;;;;;;;;;;;;;4.71;42.83;100816.22;5608359;31;34543;-66
2023/03/28 16:03:19;;;;;;;;;;;;;;;4.62;39.38;100790.66;5609193;31;33977;-65
2023/03/28 16:06:38;;;;;;;;;;;;;;;4.56;37.69;100794.59;5608231;31;34512;-66
2023/03/28 16:09:50;;;;;;;;;;;;;;;4.56;36.52;100806.87;5609331;31;34678;-66
2023/03/28 16:13:00;;;;;;;;;;;;;;;4.48;38.20;100812.75;5589672;31;33971;-66
2023/03/28 16:16:10;;;;;;;;;;;;;;;4.46;39.56;100821.69;5563101;31;35193;-66
2023/03/28 16:19:25;;;;;;;;;;;;;;;4.40;40.06;100819.56;5576242;31;34249;-66
2023/03/28 16:22:32;;;;;;;;;;;;;;;4.31;41.30;100834.19;5575999;31;35549;-65
2023/03/28 16:25:41;;;;;;;;;;;;;;;4.26;41.95;100849.50;5575581;31;34275;-67
2023/03/28 16:28:48;;;;;;;;;;;;;;;4.24;42.43;100852.22;5575993;31;34247;-67
2023/03/28 16:31:59;;;;;;;;;;;;;;;4.15;42.79;100846.84;5589643;31;34786;-67